sensor_id;sensor_type;location;lat;lon;timestamp;pressure;altitude;pressure_sealevel;temperature;humidity
21658;BME280;10990;48.174;9.782;2023-09-19T00:01:39;92485.47;;;15.94;100.00
21658;BME280;10990;48.174;9.782;2023-09-19T00:04:08;92465.75;;;15.89;100.00
21658;BME280;10990;48.174;9.782;2023-09-19T00:06:36;92449.50;;;15.96;100.00
21658;BME280;10990;48.174;9.782;2023-09-19T00:09:03;92443.09;;;15.92;100.00
21658;BME280;10990;48.174;9.782;2023-09-19T00:11:30;92444.91;;;15.76;100.00
21658;BME280;10990;48.174;9.782;2023-09-19T00:13:57;92415.06;;;15.79;100.00
21658;BME280;10990;48.174;9.782;2023-09-19T00:16:25;92399.91;;;15.80;100.00
21658;BME280;10990;48.174;9.782;2023-09-19T00:18:52;92390.56;;;15.87;100.00
21658;BME280;10990;48.174;9.782;2023-09-19T00:21:20;92398.53;;;15.82;100.00
21658;BME280;10990;48.174;9.782;2023-09-19T00:23:47;92405.91;;;15.65;100.00
21658;BME280;10990;48.174;9.782;2023-09-19T00:26:14;92382.50;;;15.67;100.00
21658;BME280;10990;48.174;9.782;2023-09-19T00:28:47;92376.06;;;15.58;100.00
21658;BME280;10990;48.174;9.782;2023-09-19T00:31:13;92377.13;;;15.57;100.00
21658;BME280;10990;48.174;9.782;2023-09-19T00:33:40;92377.91;;;15.52;100.00
21658;BME280;10990;48.174;9.782;2023-09-19T00:36:08;92363.53;;;15.53;100.00
21658;BME280;10990;48.174;9.782;2023-09-19T00:38:36;92369.91;;;15.47;100.00
21658;BME280;10990;48.174;9.782;2023-09-19T00:41:03;92366.19;;;15.53;100.00
21658;BME280;10990;48.174;9.782;2023-09-19T00:43:29;92359.28;;;15.52;100.00
21658;BME280;10990;48.174;9.782;2023-09-19T00:45:59;92354.19;;;15.51;100.00
21658;BME280;10990;48.174;9.782;2023-09-19T00:48:28;92363.25;;;15.50;100.00
21658;BME280;10990;48.174;9.782;2023-09-19T00:50:57;92372.81;;;15.40;100.00
21658;BME280;10990;48.174;9.782;2023-09-19T00:53:24;92357.88;;;15.39;100.00
21658;BME280;10990;48.174;9.782;2023-09-19T00:55:55;92356.53;;;15.37;100.00
21658;BME280;10990;48.174;9.782;2023-09-19T00:58:32;92357.34;;;15.32;100.00
21658;BME280;10990;48.174;9.782;2023-09-19T01:01:01;92359.47;;;15.35;100.00
21658;BME280;10990;48.174;9.782;2023-09-19T01:03:28;92349.59;;;15.31;100.00
21658;BME280;10990;48.174;9.782;2023-09-19T01:05:55;92356.25;;;15.28;100.00
21658;BME280;10990;48.174;9.782;2023-09-19T01:08:23;92362.88;;;15.20;100.00
21658;BME280;10990;48.174;9.782;2023-09-19T01:10:52;92361.53;;;15.18;100.00
21658;BME280;10990;48.174;9.782;2023-09-19T01:13:29;92357.56;;;15.20;100.00
21658;BME280;10990;48.174;9.782;2023-09-19T01:16:03;92343.94;;;15.17;100.00
21658;BME280;10990;48.174;9.782;2023-09-19T01:18:43;92337.03;;;15.16;100.00
21658;BME280;10990;48.174;9.782;2023-09-19T01:21:19;92322.16;;;15.25;100.00
21658;BME280;10990;48.174;9.782;2023-09-19T01:24:10;92314.69;;;15.22;100.00
21658;BME280;10990;48.174;9.782;2023-09-19T01:27:00;92310.13;;;15.17;100.00
21658;BME280;10990;48.174;9.782;2023-09-19T01:29:36;92298.72;;;15.22;100.00
21658;BME280;10990;48.174;9.782;2023-09-19T01:32:08;92274.00;;;15.32;100.00
21658;BME280;10990;48.174;9.782;2023-09-19T01:34:45;92280.09;;;15.27;100.00
21658;BME280;10990;48.174;9.782;2023-09-19T01:37:14;92263.84;;;15.29;100.00
21658;BME280;10990;48.174;9.782;2023-09-19T01:39:46;92265.19;;;15.31;100.00
21658;BME280;10990;48.174;9.782;2023-09-19T01:42:21;92271.88;;;15.34;100.00
21658;BME280;10990;48.174;9.782;2023-09-19T01:44:57;92258.03;;;15.42;100.00
21658;BME280;10990;48.174;9.782;2023-09-19T01:47:32;92257.25;;;15.41;100.00
21658;BME280;10990;48.174;9.782;2023-09-19T01:50:10;92272.16;;;15.37;100.00
21658;BME280;10990;48.174;9.782;2023-09-19T01:52:48;92276.66;;;15.37;100.00
21658;BME280;10990;48.174;9.782;2023-09-19T01:55:16;92280.94;;;15.33;100.00
21658;BME280;10990;48.174;9.782;2023-09-19T01:57:49;92283.03;;;15.31;100.00
21658;BME280;10990;48.174;9.782;2023-09-19T02:00:19;92293.94;;;15.24;100.00
21658;BME280;10990;48.174;9.782;2023-09-19T02:02:51;92285.69;;;15.25;100.00
21658;BME280;10990;48.174;9.782;2023-09-19T02:05:23;92273.19;;;15.31;100.00
21658;BME280;10990;48.174;9.782;2023-09-19T02:07:51;92280.09;;;15.27;100.00
21658;BME280;10990;48.174;9.782;2023-09-19T02:10:19;92287.53;;;15.20;100.00
21658;BME280;10990;48.174;9.782;2023-09-19T02:12:46;92290.69;;;15.12;100.00
21658;BME280;10990;48.174;9.782;2023-09-19T02:15:13;92292.03;;;15.09;100.00
21658;BME280;10990;48.174;9.782;2023-09-19T02:17:41;92291.75;;;15.11;100.00
21658;BME280;10990;48.174;9.782;2023-09-19T02:20:10;92289.06;;;15.06;100.00
21658;BME280;10990;48.174;9.782;2023-09-19T02:22:40;92277.66;;;15.10;100.00
21658;BME280;10990;48.174;9.782;2023-09-19T02:25:07;92288.28;;;15.05;100.00
21658;BME280;10990;48.174;9.782;2023-09-19T02:27:35;92293.06;;;15.08;100.00
21658;BME280;10990;48.174;9.782;2023-09-19T02:30:03;92284.53;;;15.06;100.00
21658;BME280;10990;48.174;9.782;2023-09-19T02:32:31;92290.69;;;15.12;100.00
21658;BME280;10990;48.174;9.782;2023-09-19T02:35:02;92280.06;;;15.17;100.00
21658;BME280;10990;48.174;9.782;2023-09-19T02:37:31;92275.59;;;15.28;100.00
21658;BME280;10990;48.174;9.782;2023-09-19T02:39:58;92284.13;;;15.35;100.00
21658;BME280;10990;48.174;9.782;2023-09-19T02:42:25;92297.69;;;15.33;100.00
21658;BME280;10990;48.174;9.782;2023-09-19T02:44:53;92305.44;;;15.35;100.00
21658;BME280;10990;48.174;9.782;2023-09-19T02:47:20;92316.88;;;15.35;100.00
21658;BME280;10990;48.174;9.782;2023-09-19T02:49:47;92311.06;;;15.43;100.00
21658;BME280;10990;48.174;9.782;2023-09-19T02:52:14;92318.75;;;15.45;100.00
21658;BME280;10990;48.174;9.782;2023-09-19T02:54:42;92349.38;;;15.37;100.00
21658;BME280;10990;48.174;9.782;2023-09-19T02:57:10;92348.56;;;15.37;100.00
21658;BME280;10990;48.174;9.782;2023-09-19T02:59:37;92362.94;;;15.36;100.00
21658;BME280;10990;48.174;9.782;2023-09-19T03:02:04;92370.16;;;15.40;100.00
21658;BME280;10990;48.174;9.782;2023-09-19T03:04:31;92372.28;;;15.43;100.00
21658;BME280;10990;48.174;9.782;2023-09-19T03:06:59;92382.44;;;15.46;100.00
21658;BME280;10990;48.174;9.782;2023-09-19T03:09:27;92402.09;;;15.40;100.00
21658;BME280;10990;48.174;9.782;2023-09-19T03:11:55;92415.16;;;15.42;100.00
21658;BME280;10990;48.174;9.782;2023-09-19T03:14:22;92419.69;;;15.41;100.00
21658;BME280;10990;48.174;9.782;2023-09-19T03:16:49;92441.22;;;15.35;100.00
21658;BME280;10990;48.174;9.782;2023-09-19T03:19:18;92442.81;;;15.36;100.00
21658;BME280;10990;48.174;9.782;2023-09-19T03:21:46;92455.56;;;15.34;100.00
21658;BME280;10990;48.174;9.782;2023-09-19T03:24:16;92467.00;;;15.29;100.00
21658;BME280;10990;48.174;9.782;2023-09-19T03:26:43;92488.50;;;15.22;100.00
21658;BME280;10990;48.174;9.782;2023-09-19T03:29:12;92501.25;;;15.15;100.00
21658;BME280;10990;48.174;9.782;2023-09-19T03:31:40;92491.50;;;15.26;100.00
21658;BME280;10990;48.174;9.782;2023-09-19T03:34:08;92502.47;;;15.35;100.00
21658;BME280;10990;48.174;9.782;2023-09-19T03:36:36;92518.97;;;15.37;100.00
21658;BME280;10990;48.174;9.782;2023-09-19T03:39:03;92527.78;;;15.42;100.00
21658;BME280;10990;48.174;9.782;2023-09-19T03:41:30;92546.69;;;15.41;100.00
21658;BME280;10990;48.174;9.782;2023-09-19T03:43:58;92555.53;;;15.46;100.00
21658;BME280;10990;48.174;9.782;2023-09-19T03:46:27;92562.44;;;15.47;100.00
21658;BME280;10990;48.174;9.782;2023-09-19T03:48:54;92603.47;;;15.46;100.00
21658;BME280;10990;48.174;9.782;2023-09-19T03:51:21;92606.91;;;15.47;100.00
21658;BME280;10990;48.174;9.782;2023-09-19T03:53:48;92617.28;;;15.43;100.00
21658;BME280;10990;48.174;9.782;2023-09-19T03:56:16;92621.81;;;15.48;100.00
21658;BME280;10990;48.174;9.782;2023-09-19T03:58:42;92647.09;;;15.40;100.00
21658;BME280;10990;48.174;9.782;2023-09-19T04:01:10;92643.34;;;15.41;100.00
21658;BME280;10990;48.174;9.782;2023-09-19T04:03:39;92663.91;;;15.46;100.00
21658;BME280;10990;48.174;9.782;2023-09-19T04:06:13;92681.16;;;15.38;100.00
21658;BME280;10990;48.174;9.782;2023-09-19T04:08:40;92691.06;;;15.43;100.00
21658;BME280;10990;48.174;9.782;2023-09-19T04:11:07;92698.53;;;15.46;100.00
21658;BME280;10990;48.174;9.782;2023-09-19T04:13:33;92718.22;;;15.45;100.00
21658;BME280;10990;48.174;9.782;2023-09-19T04:16:00;92723.00;;;15.43;100.00
21658;BME280;10990;48.174;9.782;2023-09-19T04:18:28;92750.44;;;15.43;100.00
21658;BME280;10990;48.174;9.782;2023-09-19T04:21:00;92765.34;;;15.44;100.00
21658;BME280;10990;48.174;9.782;2023-09-19T04:23:29;92788.25;;;15.45;100.00
21658;BME280;10990;48.174;9.782;2023-09-19T04:25:56;92809.88;;;15.49;100.00
21658;BME280;10990;48.174;9.782;2023-09-19T04:28:24;92822.44;;;15.54;100.00
21658;BME280;10990;48.174;9.782;2023-09-19T04:30:53;92833.06;;;15.49;100.00
21658;BME280;10990;48.174;9.782;2023-09-19T04:33:20;92860.72;;;15.47;100.00
21658;BME280;10990;48.174;9.782;2023-09-19T04:35:49;92878.56;;;15.47;100.00
21658;BME280;10990;48.174;9.782;2023-09-19T04:38:17;92891.66;;;15.49;100.00
21658;BME280;10990;48.174;9.782;2023-09-19T04:40:44;92905.19;;;15.47;100.00
21658;BME280;10990;48.174;9.782;2023-09-19T04:43:11;92923.28;;;15.45;100.00
21658;BME280;10990;48.174;9.782;2023-09-19T04:45:38;92941.69;;;15.46;100.00
21658;BME280;10990;48.174;9.782;2023-09-19T04:48:06;92957.41;;;15.48;100.00
21658;BME280;10990;48.174;9.782;2023-09-19T04:50:34;92962.72;;;15.48;100.00
21658;BME280;10990;48.174;9.782;2023-09-19T04:53:02;92971.22;;;15.45;100.00
21658;BME280;10990;48.174;9.782;2023-09-19T04:55:31;92990.94;;;15.44;100.00
21658;BME280;10990;48.174;9.782;2023-09-19T04:57:58;92991.16;;;15.42;100.00
21658;BME280;10990;48.174;9.782;2023-09-19T05:00:25;93005.53;;;15.41;100.00
21658;BME280;10990;48.174;9.782;2023-09-19T05:02:56;93012.81;;;15.46;100.00
21658;BME280;10990;48.174;9.782;2023-09-19T05:05:23;93024.75;;;15.43;100.00
21658;BME280;10990;48.174;9.782;2023-09-19T05:07:51;93022.31;;;15.42;100.00
21658;BME280;10990;48.174;9.782;2023-09-19T05:10:20;93030.38;;;15.47;100.00
21658;BME280;10990;48.174;9.782;2023-09-19T05:12:48;93031.09;;;15.42;100.00
21658;BME280;10990;48.174;9.782;2023-09-19T05:15:17;93043.31;;;15.38;100.00
21658;BME280;10990;48.174;9.782;2023-09-19T05:17:48;93047.50;;;15.34;100.00
21658;BME280;10990;48.174;9.782;2023-09-19T05:20:15;93050.72;;;15.36;100.00
21658;BME280;10990;48.174;9.782;2023-09-19T05:22:49;93046.38;;;15.47;100.00
21658;BME280;10990;48.174;9.782;2023-09-19T05:25:16;93056.53;;;15.50;100.00
21658;BME280;10990;48.174;9.782;2023-09-19T05:27:44;93074.59;;;15.48;100.00
21658;BME280;10990;48.174;9.782;2023-09-19T05:30:13;93059.59;;;15.42;100.00
21658;BME280;10990;48.174;9.782;2023-09-19T05:32:41;93065.72;;;15.42;100.00
21658;BME280;10990;48.174;9.782;2023-09-19T05:35:09;93068.66;;;15.41;100.00
21658;BME280;10990;48.174;9.782;2023-09-19T05:37:38;93067.03;;;15.40;100.00
21658;BME280;10990;48.174;9.782;2023-09-19T05:40:06;93082.94;;;15.35;100.00
21658;BME280;10990;48.174;9.782;2023-09-19T05:42:36;93058.09;;;15.46;100.00
21658;BME280;10990;48.174;9.782;2023-09-19T05:45:04;93064.78;;;15.49;100.00
21658;BME280;10990;48.174;9.782;2023-09-19T05:47:33;93065.50;;;15.44;100.00
21658;BME280;10990;48.174;9.782;2023-09-19T05:50:00;93062.66;;;15.51;100.00
21658;BME280;10990;48.174;9.782;2023-09-19T05:52:28;93073.22;;;15.45;100.00
21658;BME280;10990;48.174;9.782;2023-09-19T05:54:55;93071.88;;;15.43;100.00
21658;BME280;10990;48.174;9.782;2023-09-19T05:57:22;93084.78;;;15.34;100.00
21658;BME280;10990;48.174;9.782;2023-09-19T05:59:50;93086.63;;;15.34;100.00
21658;BME280;10990;48.174;9.782;2023-09-19T06:02:17;93091.25;;;15.38;100.00
21658;BME280;10990;48.174;9.782;2023-09-19T06:04:46;93098.75;;;15.41;100.00
21658;BME280;10990;48.174;9.782;2023-09-19T06:07:13;93100.13;;;15.44;100.00
21658;BME280;10990;48.174;9.782;2023-09-19T06:09:41;93088.75;;;15.49;100.00
21658;BME280;10990;48.174;9.782;2023-09-19T06:12:08;93093.91;;;15.55;100.00
21658;BME280;10990;48.174;9.782;2023-09-19T06:14:39;93087.69;;;15.66;100.00
21658;BME280;10990;48.174;9.782;2023-09-19T06:17:06;93072.66;;;15.94;100.00
21658;BME280;10990;48.174;9.782;2023-09-19T06:19:33;93079.56;;;16.34;100.00
21658;BME280;10990;48.174;9.782;2023-09-19T06:22:01;93092.19;;;16.66;100.00
21658;BME280;10990;48.174;9.782;2023-09-19T06:24:29;93087.56;;;17.05;100.00
21658;BME280;10990;48.174;9.782;2023-09-19T06:26:56;93104.66;;;17.36;100.00
21658;BME280;10990;48.174;9.782;2023-09-19T06:29:22;93115.38;;;17.74;100.00
21658;BME280;10990;48.174;9.782;2023-09-19T06:31:50;93153.13;;;18.14;100.00
21658;BME280;10990;48.174;9.782;2023-09-19T06:34:16;93192.53;;;18.24;100.00
21658;BME280;10990;48.174;9.782;2023-09-19T06:36:43;93229.16;;;18.61;100.00
21658;BME280;10990;48.174;9.782;2023-09-19T06:39:13;93273.56;;;18.57;100.00
21658;BME280;10990;48.174;9.782;2023-09-19T06:41:39;93305.31;;;18.75;100.00
21658;BME280;10990;48.174;9.782;2023-09-19T06:44:10;93347.28;;;18.70;100.00
21658;BME280;10990;48.174;9.782;2023-09-19T06:46:36;93407.63;;;18.23;100.00
21658;BME280;10990;48.174;9.782;2023-09-19T06:49:05;93445.03;;;17.74;100.00
21658;BME280;10990;48.174;9.782;2023-09-19T06:51:32;93467.88;;;17.65;100.00
21658;BME280;10990;48.174;9.782;2023-09-19T06:54:00;93473.78;;;17.67;100.00
21658;BME280;10990;48.174;9.782;2023-09-19T06:56:28;93480.22;;;17.66;100.00
21658;BME280;10990;48.174;9.782;2023-09-19T06:58:55;93488.47;;;17.64;100.00
21658;BME280;10990;48.174;9.782;2023-09-19T07:01:22;93479.56;;;18.20;100.00
21658;BME280;10990;48.174;9.782;2023-09-19T07:03:50;93474.25;;;19.06;100.00
21658;BME280;10990;48.174;9.782;2023-09-19T07:06:18;93512.72;;;19.97;100.00
21658;BME280;10990;48.174;9.782;2023-09-19T07:08:45;93590.91;;;20.10;100.00
21658;BME280;10990;48.174;9.782;2023-09-19T07:11:12;93662.44;;;20.37;100.00
21658;BME280;10990;48.174;9.782;2023-09-19T07:13:40;93693.22;;;21.19;100.00
21658;BME280;10990;48.174;9.782;2023-09-19T07:16:07;93787.56;;;21.65;100.00
21658;BME280;10990;48.174;9.782;2023-09-19T07:18:35;93908.97;;;21.84;100.00
21658;BME280;10990;48.174;9.782;2023-09-19T07:21:02;94029.34;;;21.57;100.00
21658;BME280;10990;48.174;9.782;2023-09-19T07:23:30;94122.09;;;21.81;100.00
21658;BME280;10990;48.174;9.782;2023-09-19T07:26:00;94262.59;;;21.83;100.00
21658;BME280;10990;48.174;9.782;2023-09-19T07:28:30;94357.19;;;21.92;100.00
21658;BME280;10990;48.174;9.782;2023-09-19T07:31:02;94389.28;;;22.21;100.00
21658;BME280;10990;48.174;9.782;2023-09-19T07:33:30;94472.44;;;22.17;100.00
21658;BME280;10990;48.174;9.782;2023-09-19T07:35:57;94574.44;;;21.91;100.00
21658;BME280;10990;48.174;9.782;2023-09-19T07:38:24;94673.72;;;21.42;100.00
21658;BME280;10990;48.174;9.782;2023-09-19T07:40:52;94740.63;;;20.98;100.00
21658;BME280;10990;48.174;9.782;2023-09-19T07:43:19;94730.06;;;21.09;100.00
21658;BME280;10990;48.174;9.782;2023-09-19T07:45:45;94751.09;;;21.12;100.00
21658;BME280;10990;48.174;9.782;2023-09-19T07:48:14;94779.44;;;21.55;100.00
21658;BME280;10990;48.174;9.782;2023-09-19T07:50:41;94822.25;;;21.33;100.00
21658;BME280;10990;48.174;9.782;2023-09-19T07:53:09;94843.09;;;21.49;100.00
21658;BME280;10990;48.174;9.782;2023-09-19T07:55:38;94921.94;;;21.38;100.00
21658;BME280;10990;48.174;9.782;2023-09-19T07:58:06;94936.41;;;21.37;100.00
21658;BME280;10990;48.174;9.782;2023-09-19T08:00:33;94975.16;;;21.47;100.00
21658;BME280;10990;48.174;9.782;2023-09-19T08:03:00;94995.88;;;22.34;100.00
21658;BME280;10990;48.174;9.782;2023-09-19T08:05:30;95093.13;;;23.31;100.00
21658;BME280;10990;48.174;9.782;2023-09-19T08:07:58;95222.41;;;23.03;100.00
21658;BME280;10990;48.174;9.782;2023-09-19T08:10:26;95321.59;;;22.78;100.00
21658;BME280;10990;48.174;9.782;2023-09-19T08:13:00;95350.50;;;23.53;100.00
21658;BME280;10990;48.174;9.782;2023-09-19T08:15:27;95442.03;;;23.90;100.00
21658;BME280;10990;48.174;9.782;2023-09-19T08:17:54;95523.78;;;23.97;100.00
21658;BME280;10990;48.174;9.782;2023-09-19T08:20:21;95576.84;;;23.14;100.00
21658;BME280;10990;48.174;9.782;2023-09-19T08:22:50;95577.88;;;23.43;100.00
21658;BME280;10990;48.174;9.782;2023-09-19T08:25:20;95586.63;;;22.67;100.00
21658;BME280;10990;48.174;9.782;2023-09-19T08:27:47;95579.41;;;22.60;100.00
21658;BME280;10990;48.174;9.782;2023-09-19T08:30:15;95567.00;;;22.59;100.00
21658;BME280;10990;48.174;9.782;2023-09-19T08:32:42;95542.53;;;21.62;100.00
21658;BME280;10990;48.174;9.782;2023-09-19T08:35:09;95518.53;;;21.11;100.00
21658;BME280;10990;48.174;9.782;2023-09-19T08:37:36;95471.63;;;21.32;100.00
21658;BME280;10990;48.174;9.782;2023-09-19T08:40:04;95432.81;;;21.46;100.00
21658;BME280;10990;48.174;9.782;2023-09-19T08:42:47;95494.34;;;21.36;100.00
21658;BME280;10990;48.174;9.782;2023-09-19T08:45:14;95477.72;;;23.10;100.00
21658;BME280;10990;48.174;9.782;2023-09-19T08:47:45;95560.47;;;23.27;100.00
21658;BME280;10990;48.174;9.782;2023-09-19T08:50:19;95615.84;;;23.72;100.00
21658;BME280;10990;48.174;9.782;2023-09-19T08:52:47;95655.94;;;24.57;100.00
21658;BME280;10990;48.174;9.782;2023-09-19T08:55:17;95722.63;;;25.27;100.00
21658;BME280;10990;48.174;9.782;2023-09-19T08:57:49;95745.31;;;25.67;100.00
21658;BME280;10990;48.174;9.782;2023-09-19T09:00:17;95785.13;;;25.02;100.00
21658;BME280;10990;48.174;9.782;2023-09-19T09:02:46;95799.41;;;24.21;100.00
21658;BME280;10990;48.174;9.782;2023-09-19T09:05:15;95812.09;;;24.50;100.00
21658;BME280;10990;48.174;9.782;2023-09-19T09:07:48;95800.56;;;22.29;100.00
21658;BME280;10990;48.174;9.782;2023-09-19T09:10:17;95773.09;;;21.82;100.00
21658;BME280;10990;48.174;9.782;2023-09-19T09:12:48;95754.09;;;23.81;100.00
21658;BME280;10990;48.174;9.782;2023-09-19T09:15:16;95766.00;;;23.43;100.00
21658;BME280;10990;48.174;9.782;2023-09-19T09:17:46;95764.38;;;22.43;100.00
21658;BME280;10990;48.174;9.782;2023-09-19T09:20:14;95752.72;;;22.86;100.00
21658;BME280;10990;48.174;9.782;2023-09-19T09:22:50;95767.47;;;23.87;100.00
21658;BME280;10990;48.174;9.782;2023-09-19T09:25:19;95771.31;;;23.31;100.00
21658;BME280;10990;48.174;9.782;2023-09-19T09:27:58;95773.00;;;23.32;100.00
21658;BME280;10990;48.174;9.782;2023-09-19T09:30:33;95781.59;;;23.22;100.00
21658;BME280;10990;48.174;9.782;2023-09-19T09:33:08;95771.56;;;22.49;100.00
21658;BME280;10990;48.174;9.782;2023-09-19T09:35:35;95756.97;;;22.38;100.00
21658;BME280;10990;48.174;9.782;2023-09-19T09:38:03;95750.47;;;22.83;100.00
21658;BME280;10990;48.174;9.782;2023-09-19T09:40:45;95790.84;;;23.15;100.00
21658;BME280;10990;48.174;9.782;2023-09-19T09:43:29;95797.81;;;21.72;100.00
21658;BME280;10990;48.174;9.782;2023-09-19T09:46:10;95763.22;;;21.37;100.00
21658;BME280;10990;48.174;9.782;2023-09-19T09:48:58;95732.94;;;20.97;100.00
21658;BME280;10990;48.174;9.782;2023-09-19T09:51:43;95700.31;;;20.80;100.00
21658;BME280;10990;48.174;9.782;2023-09-19T09:54:13;95684.50;;;20.19;100.00
21658;BME280;10990;48.174;9.782;2023-09-19T09:56:56;95644.59;;;20.55;100.00
21658;BME280;10990;48.174;9.782;2023-09-19T09:59:44;95645.47;;;22.70;100.00
21658;BME280;10990;48.174;9.782;2023-09-19T10:02:13;95731.75;;;23.74;100.00
21658;BME280;10990;48.174;9.782;2023-09-19T10:04:41;95790.88;;;23.45;100.00
21658;BME280;10990;48.174;9.782;2023-09-19T10:07:27;95802.81;;;23.56;100.00
21658;BME280;10990;48.174;9.782;2023-09-19T10:09:58;95811.00;;;25.34;100.00
21658;BME280;10990;48.174;9.782;2023-09-19T10:12:38;95842.16;;;26.00;100.00
21658;BME280;10990;48.174;9.782;2023-09-19T10:15:10;95856.06;;;25.52;100.00
21658;BME280;10990;48.174;9.782;2023-09-19T10:17:39;95865.94;;;25.58;100.00
21658;BME280;10990;48.174;9.782;2023-09-19T10:20:12;95871.84;;;25.55;100.00
21658;BME280;10990;48.174;9.782;2023-09-19T10:22:59;95869.59;;;23.97;100.00
21658;BME280;10990;48.174;9.782;2023-09-19T10:25:28;95854.09;;;24.88;100.00
21658;BME280;10990;48.174;9.782;2023-09-19T10:28:00;95866.94;;;25.16;100.00
21658;BME280;10990;48.174;9.782;2023-09-19T10:30:29;95847.50;;;24.84;100.00
21658;BME280;10990;48.174;9.782;2023-09-19T10:33:01;95871.78;;;25.26;100.00
21658;BME280;10990;48.174;9.782;2023-09-19T10:35:28;95875.78;;;25.87;100.00
21658;BME280;10990;48.174;9.782;2023-09-19T10:37:57;95868.44;;;25.47;100.00
21658;BME280;10990;48.174;9.782;2023-09-19T10:40:27;95879.91;;;25.78;100.00
21658;BME280;10990;48.174;9.782;2023-09-19T10:43:02;95866.84;;;26.44;100.00
21658;BME280;10990;48.174;9.782;2023-09-19T10:45:31;95878.13;;;25.20;100.00
21658;BME280;10990;48.174;9.782;2023-09-19T10:47:59;95870.00;;;25.20;100.00
21658;BME280;10990;48.174;9.782;2023-09-19T10:50:31;95869.91;;;25.15;100.00
21658;BME280;10990;48.174;9.782;2023-09-19T10:53:00;95873.38;;;24.80;100.00
21658;BME280;10990;48.174;9.782;2023-09-19T10:55:33;95876.34;;;24.06;100.00
21658;BME280;10990;48.174;9.782;2023-09-19T10:58:03;95864.59;;;23.64;100.00
21658;BME280;10990;48.174;9.782;2023-09-19T11:00:53;95837.09;;;23.18;100.00
21658;BME280;10990;48.174;9.782;2023-09-19T11:03:21;95827.88;;;23.26;100.00
21658;BME280;10990;48.174;9.782;2023-09-19T11:06:03;95811.25;;;22.86;100.00
21658;BME280;10990;48.174;9.782;2023-09-19T11:08:59;95783.84;;;23.25;100.00
21658;BME280;10990;48.174;9.782;2023-09-19T11:11:46;95799.84;;;23.27;100.00
21658;BME280;10990;48.174;9.782;2023-09-19T11:14:40;95811.75;;;22.76;100.00
21658;BME280;10990;48.174;9.782;2023-09-19T11:17:40;95806.59;;;23.66;100.00
21658;BME280;10990;48.174;9.782;2023-09-19T11:20:23;95839.34;;;23.40;100.00
21658;BME280;10990;48.174;9.782;2023-09-19T11:23:18;95848.41;;;23.27;100.00
21658;BME280;10990;48.174;9.782;2023-09-19T11:25:49;95853.41;;;22.80;100.00
21658;BME280;10990;48.174;9.782;2023-09-19T11:28:30;95846.59;;;23.02;100.00
21658;BME280;10990;48.174;9.782;2023-09-19T11:30:59;95830.03;;;23.36;100.00
21658;BME280;10990;48.174;9.782;2023-09-19T11:33:26;95831.53;;;23.50;100.00
21658;BME280;10990;48.174;9.782;2023-09-19T11:36:00;95841.34;;;23.44;100.00
21658;BME280;10990;48.174;9.782;2023-09-19T11:39:00;95851.19;;;23.39;100.00
21658;BME280;10990;48.174;9.782;2023-09-19T11:41:46;95847.81;;;23.25;100.00
21658;BME280;10990;48.174;9.782;2023-09-19T11:44:34;95842.41;;;23.25;100.00
21658;BME280;10990;48.174;9.782;2023-09-19T11:47:06;95840.91;;;23.47;100.00
21658;BME280;10990;48.174;9.782;2023-09-19T11:49:35;95821.56;;;23.50;100.00
21658;BME280;10990;48.174;9.782;2023-09-19T11:52:06;95830.09;;;23.66;100.00
21658;BME280;10990;48.174;9.782;2023-09-19T11:54:35;95845.25;;;23.30;100.00
21658;BME280;10990;48.174;9.782;2023-09-19T11:57:05;95831.44;;;23.75;100.00
21658;BME280;10990;48.174;9.782;2023-09-19T11:59:32;95843.31;;;23.56;100.00
21658;BME280;10990;48.174;9.782;2023-09-19T12:02:01;95845.56;;;23.03;100.00
21658;BME280;10990;48.174;9.782;2023-09-19T12:04:35;95834.63;;;23.35;100.00
21658;BME280;10990;48.174;9.782;2023-09-19T12:07:04;95827.72;;;23.39;100.00
21658;BME280;10990;48.174;9.782;2023-09-19T12:09:38;95823.97;;;23.40;100.00
21658;BME280;10990;48.174;9.782;2023-09-19T12:12:06;95828.03;;;23.13;100.00
21658;BME280;10990;48.174;9.782;2023-09-19T12:14:33;95831.09;;;23.35;100.00
21658;BME280;10990;48.174;9.782;2023-09-19T12:17:00;95826.06;;;23.38;100.00
21658;BME280;10990;48.174;9.782;2023-09-19T12:19:29;95818.56;;;23.22;100.00
21658;BME280;10990;48.174;9.782;2023-09-19T12:21:58;95810.81;;;23.81;100.00
21658;BME280;10990;48.174;9.782;2023-09-19T12:24:30;95840.31;;;23.27;100.00
21658;BME280;10990;48.174;9.782;2023-09-19T12:27:01;95834.69;;;23.47;100.00
21658;BME280;10990;48.174;9.782;2023-09-19T12:29:31;95826.22;;;23.43;100.00
21658;BME280;10990;48.174;9.782;2023-09-19T12:31:59;95833.28;;;23.26;100.00
21658;BME280;10990;48.174;9.782;2023-09-19T12:34:30;95841.81;;;23.23;100.00
21658;BME280;10990;48.174;9.782;2023-09-19T12:37:05;95831.38;;;23.08;100.00
21658;BME280;10990;48.174;9.782;2023-09-19T12:39:38;95830.41;;;23.58;100.00
21658;BME280;10990;48.174;9.782;2023-09-19T12:42:08;95829.44;;;23.34;100.00
21658;BME280;10990;48.174;9.782;2023-09-19T12:44:36;95828.97;;;23.37;100.00
21658;BME280;10990;48.174;9.782;2023-09-19T12:47:11;95821.78;;;23.31;100.00
21658;BME280;10990;48.174;9.782;2023-09-19T12:50:06;95827.72;;;23.39;100.00
21658;BME280;10990;48.174;9.782;2023-09-19T12:52:41;95825.53;;;23.48;100.00
21658;BME280;10990;48.174;9.782;2023-09-19T12:55:19;95828.47;;;23.28;100.00
21658;BME280;10990;48.174;9.782;2023-09-19T12:57:56;95821.72;;;23.19;100.00
21658;BME280;10990;48.174;9.782;2023-09-19T13:00:31;95827.19;;;23.12;100.00
21658;BME280;10990;48.174;9.782;2023-09-19T13:03:17;95837.06;;;22.75;100.00
21658;BME280;10990;48.174;9.782;2023-09-19T13:05:51;95825.25;;;22.76;100.00
21658;BME280;10990;48.174;9.782;2023-09-19T13:08:24;95815.94;;;22.47;100.00